createdAt,value
2023-03-27T00:01:12.781Z,1.45
2023-03-27T00:03:40.798Z,1.35
2023-03-27T00:06:16.538Z,1.25
2023-03-27T00:08:48.155Z,1.30
2023-03-27T00:11:15.948Z,1.52
2023-03-27T00:13:50.560Z,1.55
2023-03-27T00:16:23.634Z,1.52
2023-03-27T00:18:51.461Z,2.10
2023-03-27T00:21:19.342Z,1.60
2023-03-27T00:23:46.993Z,2.00
2023-03-27T00:26:15.431Z,1.60
2023-03-27T00:28:43.528Z,1.88
2023-03-27T00:31:15.732Z,1.80
2023-03-27T00:33:43.798Z,1.83
2023-03-27T00:36:11.659Z,1.60
2023-03-27T00:38:39.847Z,1.55
2023-03-27T00:41:08.876Z,1.60
2023-03-27T00:43:41.102Z,1.42
2023-03-27T00:46:16.247Z,1.48
2023-03-27T00:48:47.434Z,1.77
2023-03-27T00:51:16.020Z,1.77
2023-03-27T00:53:43.998Z,1.90
2023-03-27T00:56:11.837Z,1.77
2023-03-27T00:58:51.807Z,1.70
2023-03-27T01:01:20.494Z,1.73
2023-03-27T01:03:49.355Z,1.85
2023-03-27T01:06:17.652Z,1.60
2023-03-27T01:08:46.459Z,1.42
2023-03-27T01:11:57.796Z,1.70
2023-03-27T01:14:35.912Z,1.60
2023-03-27T01:17:37.455Z,1.63
2023-03-27T01:20:19.813Z,1.50
2023-03-27T01:23:02.130Z,1.42
2023-03-27T01:25:45.314Z,1.50
2023-03-27T01:31:05.157Z,1.50
2023-03-27T01:34:09.963Z,1.48
2023-03-27T01:37:02.758Z,1.60
2023-03-27T01:39:46.069Z,1.52
2023-03-27T01:42:16.698Z,2.05
2023-03-27T01:45:04.486Z,1.73
2023-03-27T01:47:46.199Z,1.98
2023-03-27T01:50:28.591Z,1.80
2023-03-27T01:53:02.383Z,2.33
2023-03-27T01:55:36.079Z,1.80
2023-03-27T01:58:18.647Z,1.90
2023-03-27T02:00:53.221Z,1.90
2023-03-27T02:03:34.946Z,1.80
2023-03-27T02:06:11.005Z,2.00
2023-03-27T02:08:57.752Z,1.80
2023-03-27T02:11:29.198Z,1.90
2023-03-27T02:14:06.211Z,2.20
2023-03-27T02:16:44.739Z,1.95
2023-03-27T02:19:20.924Z,2.20
2023-03-27T02:21:48.324Z,2.22
2023-03-27T02:24:18.843Z,2.25
2023-03-27T02:26:47.365Z,1.92
2023-03-27T02:29:42.175Z,2.00
2023-03-27T02:32:34.561Z,2.13
2023-03-27T02:35:13.538Z,2.33
2023-03-27T02:37:57.432Z,2.60
2023-03-27T02:40:27.748Z,2.35
2023-03-27T02:43:03.990Z,2.20
2023-03-27T02:45:40.367Z,2.40
2023-03-27T02:48:29.927Z,3.22
2023-03-27T02:51:23.495Z,2.03
2023-03-27T02:53:59.684Z,2.30
2023-03-27T02:56:28.455Z,1.80
2023-03-27T02:59:03.902Z,2.28
2023-03-27T03:01:32.571Z,2.28
2023-03-27T03:04:04.220Z,2.60
2023-03-27T03:06:31.813Z,1.75
2023-03-27T03:09:02.087Z,1.90
2023-03-27T03:11:29.909Z,1.73
2023-03-27T03:13:57.725Z,1.60
2023-03-27T03:16:25.578Z,1.65
2023-03-27T03:18:53.050Z,1.80
2023-03-27T03:21:20.590Z,1.45
2023-03-27T03:23:57.965Z,1.63
2023-03-27T03:26:27.123Z,1.60
2023-03-27T03:29:00.196Z,1.83
2023-03-27T03:31:43.074Z,1.92
2023-03-27T03:34:16.405Z,1.60
2023-03-27T03:36:49.107Z,1.55
2023-03-27T03:41:44.316Z,1.50
2023-03-27T03:44:11.827Z,1.85
2023-03-27T03:46:39.482Z,1.60
2023-03-27T03:49:07.432Z,1.50
2023-03-27T03:51:44.915Z,1.38
2023-03-27T03:54:12.604Z,1.20
2023-03-27T03:56:43.297Z,1.75
2023-03-27T03:59:12.106Z,1.40
2023-03-27T04:01:40.832Z,1.35
2023-03-27T04:04:10.136Z,1.40
2023-03-27T04:06:40.561Z,1.55
2023-03-27T04:09:07.892Z,1.30
2023-03-27T04:11:35.592Z,1.35
2023-03-27T04:14:02.901Z,1.17
2023-03-27T04:16:30.240Z,1.17
2023-03-27T04:18:57.667Z,1.15
2023-03-27T04:21:27.217Z,1.50
2023-03-27T04:23:54.724Z,1.33
2023-03-27T04:26:26.690Z,1.33
2023-03-27T04:28:54.266Z,1.00
2023-03-27T04:31:22.022Z,1.50
2023-03-27T04:33:55.774Z,1.23
2023-03-27T04:36:26.167Z,1.52
2023-03-27T04:38:54.289Z,1.60
2023-03-27T04:41:21.682Z,1.65
2023-03-27T04:43:49.089Z,1.75
2023-03-27T04:46:16.469Z,1.77
2023-03-27T04:48:43.942Z,1.70
2023-03-27T04:51:11.300Z,2.25
2023-03-27T04:53:38.803Z,1.55
2023-03-27T04:56:06.894Z,2.47
2023-03-27T04:58:37.121Z,2.33
2023-03-27T05:01:05.677Z,2.83
2023-03-27T05:03:34.828Z,2.90
2023-03-27T05:06:04.195Z,3.17
2023-03-27T05:08:32.699Z,3.20
2023-03-27T05:11:00.369Z,3.17
2023-03-27T05:13:28.790Z,2.60
2023-03-27T05:15:59.522Z,3.38
2023-03-27T05:18:27.701Z,2.17
2023-03-27T05:20:59.392Z,2.35
2023-03-27T05:23:27.439Z,2.30
2023-03-27T05:25:59.436Z,2.15
2023-03-27T05:28:29.344Z,2.10
2023-03-27T05:30:57.608Z,2.38
2023-03-27T05:33:25.950Z,2.00
2023-03-27T05:35:53.683Z,2.47
2023-03-27T05:38:22.961Z,2.50
2023-03-27T05:40:52.295Z,2.20
2023-03-27T05:43:19.723Z,1.92
2023-03-27T05:45:49.808Z,2.30
2023-03-27T05:48:17.453Z,2.40
2023-03-27T05:50:45.361Z,2.15
2023-03-27T05:53:12.882Z,2.17
2023-03-27T05:55:40.349Z,2.22
2023-03-27T05:58:09.917Z,2.95
2023-03-27T06:00:38.773Z,2.22
2023-03-27T06:03:07.057Z,2.92
2023-03-27T06:05:34.675Z,2.65
2023-03-27T06:08:02.221Z,3.60
2023-03-27T06:10:30.886Z,3.17
2023-03-27T06:13:05.226Z,2.53
2023-03-27T06:15:33.426Z,3.58
2023-03-27T06:18:00.864Z,2.72
2023-03-27T06:20:28.289Z,2.70
2023-03-27T06:22:59.491Z,2.22
2023-03-27T06:25:28.402Z,2.78
2023-03-27T06:27:55.876Z,2.78
2023-03-27T06:30:24.822Z,2.60
2023-03-27T06:32:54.476Z,2.47
2023-03-27T06:35:23.762Z,2.90
2023-03-27T06:37:51.742Z,2.60
2023-03-27T06:40:24.374Z,2.70
2023-03-27T06:43:07.596Z,2.50
2023-03-27T06:45:46.834Z,3.00
2023-03-27T06:48:21.503Z,2.78
2023-03-27T06:50:51.516Z,2.88
2023-03-27T06:55:51.775Z,2.75
2023-03-27T06:58:19.643Z,2.53
2023-03-27T07:00:49.098Z,2.60
2023-03-27T07:03:17.993Z,2.40
2023-03-27T07:05:45.844Z,2.67
2023-03-27T07:08:23.469Z,2.72
2023-03-27T07:13:25.743Z,2.55
2023-03-27T07:15:53.124Z,2.50
2023-03-27T07:18:22.493Z,2.30
2023-03-27T07:20:50.618Z,2.08
2023-03-27T07:23:20.866Z,2.40
2023-03-27T07:25:52.058Z,2.38
2023-03-27T07:28:21.062Z,2.05
2023-03-27T07:30:52.611Z,1.75
2023-03-27T07:33:20.149Z,1.40
2023-03-27T07:35:48.740Z,1.58
2023-03-27T07:38:17.571Z,1.92
2023-03-27T07:40:46.873Z,2.13
2023-03-27T07:43:16.877Z,2.10
2023-03-27T07:45:47.422Z,2.35
2023-03-27T07:48:17.391Z,1.10
2023-03-27T07:51:00.657Z,0.98
2023-03-27T07:53:39.362Z,1.08
2023-03-27T07:56:08.848Z,1.13
2023-03-27T07:58:36.576Z,0.90
2023-03-27T08:01:04.769Z,1.35
2023-03-27T08:03:32.863Z,1.38
2023-03-27T08:06:01.281Z,1.40
2023-03-27T08:08:28.806Z,1.17
2023-03-27T08:10:57.157Z,1.30
2023-03-27T08:13:25.215Z,1.48
2023-03-27T08:15:53.029Z,1.50
2023-03-27T08:18:20.724Z,1.50
2023-03-27T08:20:49.786Z,1.70
2023-03-27T08:23:17.144Z,1.67
2023-03-27T08:25:51.078Z,1.45
2023-03-27T08:28:18.641Z,1.52
2023-03-27T08:30:47.600Z,1.65
2023-03-27T08:33:15.160Z,2.20
2023-03-27T08:35:42.543Z,1.60
2023-03-27T08:38:23.664Z,1.90
2023-03-27T08:41:01.036Z,2.67
2023-03-27T08:43:40.197Z,2.25
2023-03-27T08:46:33.419Z,2.25
2023-03-27T08:49:20.415Z,1.73
2023-03-27T08:52:00.810Z,2.00
2023-03-27T08:54:33.993Z,1.00
2023-03-27T08:57:02.185Z,1.15
2023-03-27T08:59:31.752Z,1.40
2023-03-27T09:02:23.098Z,1.67
2023-03-27T09:04:53.208Z,1.35
2023-03-27T09:07:34.314Z,1.02
2023-03-27T09:10:22.746Z,1.08
2023-03-27T09:12:59.900Z,1.50
2023-03-27T09:15:35.020Z,1.48
2023-03-27T09:18:28.096Z,1.65
2023-03-27T09:20:59.386Z,1.83
2023-03-27T09:23:45.408Z,1.65
2023-03-27T09:26:27.562Z,1.60
2023-03-27T09:29:03.162Z,1.95
2023-03-27T09:31:35.570Z,1.60
2023-03-27T09:34:07.007Z,1.77
2023-03-27T09:36:36.184Z,1.40
2023-03-27T09:39:08.331Z,1.52
2023-03-27T09:41:39.798Z,1.38
2023-03-27T09:44:14.109Z,1.55
2023-03-27T09:46:45.224Z,1.52
2023-03-27T09:49:18.773Z,1.25
2023-03-27T09:51:51.794Z,1.13
2023-03-27T09:54:23.880Z,1.52
2023-03-27T09:57:00.064Z,1.58
2023-03-27T09:59:38.421Z,1.17
2023-03-27T10:02:23.021Z,1.35
2023-03-27T10:05:03.946Z,1.48
2023-03-27T10:07:31.406Z,1.50
2023-03-27T10:10:32.363Z,1.65
2023-03-27T10:13:00.804Z,1.80
2023-03-27T10:15:28.135Z,1.58
2023-03-27T10:17:56.017Z,1.92
2023-03-27T10:20:24.216Z,2.15
2023-03-27T10:23:06.339Z,1.58
2023-03-27T10:25:39.392Z,1.73
2023-03-27T10:28:29.497Z,1.60
2023-03-27T10:31:09.986Z,1.73
2023-03-27T10:33:40.661Z,1.52
2023-03-27T10:36:10.051Z,1.60
2023-03-27T10:38:39.190Z,1.70
2023-03-27T10:41:14.746Z,1.90
2023-03-27T10:43:43.922Z,1.70
2023-03-27T10:46:31.232Z,1.60
2023-03-27T10:48:58.810Z,1.23
2023-03-27T10:51:56.748Z,1.20
2023-03-27T10:54:34.818Z,1.25
2023-03-27T10:57:11.546Z,1.33
2023-03-27T10:59:50.755Z,1.73
2023-03-27T11:02:25.811Z,1.70
2023-03-27T11:05:05.544Z,1.40
2023-03-27T11:07:44.573Z,0.90
2023-03-27T11:10:22.612Z,1.63
2023-03-27T11:12:56.459Z,1.27
2023-03-27T11:15:31.750Z,1.35
2023-03-27T11:18:18.598Z,1.17
2023-03-27T11:21:03.652Z,1.20
2023-03-27T11:23:55.007Z,1.08
2023-03-27T11:26:34.490Z,1.25
2023-03-27T11:29:14.709Z,1.05
2023-03-27T11:31:46.522Z,1.05
2023-03-27T11:34:29.000Z,1.07
2023-03-27T11:37:07.857Z,1.08
2023-03-27T11:39:46.818Z,1.38
2023-03-27T11:42:26.626Z,1.27
2023-03-27T11:44:54.306Z,1.20
2023-03-27T11:47:25.107Z,1.20
2023-03-27T11:50:19.977Z,1.50
2023-03-27T11:53:02.418Z,1.02
2023-03-27T11:55:56.182Z,1.50
2023-03-27T11:58:33.575Z,1.27
2023-03-27T12:01:37.509Z,2.00
2023-03-27T12:04:25.016Z,1.55
2023-03-27T12:07:36.378Z,1.45
2023-03-27T12:10:13.787Z,1.38
2023-03-27T12:13:10.434Z,1.70
2023-03-27T12:15:50.355Z,1.65
2023-03-27T12:18:32.310Z,1.05
2023-03-27T12:21:13.614Z,1.10
2023-03-27T12:23:47.838Z,1.55
2023-03-27T12:26:43.958Z,1.88
2023-03-27T12:29:23.523Z,1.40
2023-03-27T12:32:08.777Z,1.85
2023-03-27T12:34:39.483Z,1.50
2023-03-27T12:37:10.812Z,1.60
2023-03-27T12:39:51.904Z,1.80
2023-03-27T12:42:44.516Z,1.40
2023-03-27T12:45:28.291Z,1.08
2023-03-27T12:48:11.275Z,1.60
2023-03-27T12:50:45.477Z,1.10
2023-03-27T12:53:28.152Z,1.50
2023-03-27T12:56:17.045Z,1.58
2023-03-27T12:58:51.714Z,1.40
2023-03-27T13:02:05.349Z,1.40
2023-03-27T13:05:24.130Z,1.40
2023-03-27T13:08:32.208Z,1.60
2023-03-27T13:11:28.769Z,1.75
2023-03-27T13:14:02.675Z,1.58
2023-03-27T13:16:55.304Z,1.98
2023-03-27T13:19:35.649Z,1.70
2023-03-27T13:22:21.609Z,1.60
2023-03-27T13:25:07.913Z,1.70
2023-03-27T13:28:11.634Z,1.70
2023-03-27T13:31:25.518Z,1.45
2023-03-27T13:34:34.809Z,1.42
2023-03-27T13:37:11.390Z,1.50
2023-03-27T13:39:48.217Z,1.67
2023-03-27T13:42:24.935Z,1.58
2023-03-27T13:44:57.394Z,1.73
2023-03-27T13:47:34.058Z,1.88
2023-03-27T13:50:36.814Z,1.92
2023-03-27T13:53:23.887Z,1.83
2023-03-27T13:56:29.852Z,1.60
2023-03-27T13:59:34.525Z,1.85
2023-03-27T14:02:27.143Z,1.70
2023-03-27T14:05:13.557Z,1.70
2023-03-27T14:08:06.110Z,1.88
2023-03-27T14:10:43.933Z,1.98
2023-03-27T14:13:45.687Z,1.70
2023-03-27T14:16:38.183Z,1.73
2023-03-27T14:19:23.874Z,1.90
2023-03-27T14:22:14.573Z,1.55
2023-03-27T14:24:49.090Z,1.80
2023-03-27T14:27:19.063Z,1.67
2023-03-27T14:29:49.625Z,2.15
2023-03-27T14:32:20.812Z,1.85
2023-03-27T14:35:02.659Z,1.95
2023-03-27T14:37:36.067Z,2.15
2023-03-27T14:40:21.009Z,2.03
2023-03-27T14:42:54.490Z,2.60
2023-03-27T14:45:24.005Z,1.88
2023-03-27T14:48:03.166Z,1.88
2023-03-27T14:50:34.499Z,2.10
2023-03-27T14:53:07.920Z,2.03
2023-03-27T14:55:45.630Z,1.80
2023-03-27T14:58:19.840Z,2.08
2023-03-27T15:00:54.731Z,2.30
2023-03-27T15:03:26.143Z,2.03
2023-03-27T15:06:13.698Z,1.92
2023-03-27T15:08:46.106Z,2.28
2023-03-27T15:11:22.972Z,2.03
2023-03-27T15:13:51.397Z,1.95
2023-03-27T15:16:42.282Z,2.05
2023-03-27T15:19:26.431Z,1.83
2023-03-27T15:22:15.588Z,2.00
2023-03-27T15:28:12.879Z,2.20
2023-03-27T15:30:52.293Z,1.38
2023-03-27T15:33:36.484Z,1.25
2023-03-27T15:36:11.952Z,1.70
2023-03-27T15:38:39.782Z,1.90
2023-03-27T15:41:16.252Z,1.50
2023-03-27T15:43:44.860Z,1.70
2023-03-27T15:46:18.600Z,1.60
2023-03-27T15:49:01.661Z,1.20
2023-03-27T15:54:02.666Z,1.73
2023-03-27T15:56:46.351Z,2.33
2023-03-27T15:59:26.288Z,1.77
2023-03-27T16:02:12.411Z,1.90
2023-03-27T16:04:58.999Z,1.50
2023-03-27T16:07:50.719Z,1.98
2023-03-27T16:10:34.323Z,1.63
2023-03-27T16:13:21.776Z,1.60
2023-03-27T16:16:00.697Z,1.98
2023-03-27T16:18:31.094Z,2.45
2023-03-27T16:21:10.463Z,1.63
2023-03-27T16:23:37.988Z,1.83
2023-03-27T16:26:07.331Z,1.98
2023-03-27T16:28:34.841Z,1.52
2023-03-27T16:31:11.905Z,1.90
2023-03-27T16:33:43.103Z,1.90
2023-03-27T16:36:12.658Z,1.80
2023-03-27T16:38:42.015Z,1.73
2023-03-27T16:41:13.944Z,1.65
2023-03-27T16:43:41.919Z,1.95
2023-03-27T16:46:23.962Z,1.90
2023-03-27T16:48:52.417Z,1.42
2023-03-27T16:51:22.157Z,1.83
2023-03-27T16:53:49.651Z,2.00
2023-03-27T16:56:17.196Z,1.75
2023-03-27T16:58:44.642Z,1.83
2023-03-27T17:01:12.333Z,1.92
2023-03-27T17:03:40.371Z,1.35
2023-03-27T17:08:59.933Z,1.65
2023-03-27T17:11:29.265Z,1.83
2023-03-27T17:13:56.687Z,1.50
2023-03-27T17:16:24.220Z,1.63
2023-03-27T17:18:55.186Z,1.83
2023-03-27T17:21:26.445Z,1.70
2023-03-27T17:23:55.855Z,1.55
2023-03-27T17:26:27.638Z,1.33
2023-03-27T17:28:56.025Z,1.92
2023-03-27T17:31:23.889Z,1.80
2023-03-27T17:33:52.226Z,1.85
2023-03-27T17:36:29.815Z,1.30
2023-03-27T17:39:07.822Z,1.60
2023-03-27T17:41:35.511Z,1.42
2023-03-27T17:44:03.539Z,1.40
2023-03-27T17:46:31.765Z,1.67
2023-03-27T17:48:59.172Z,1.85
2023-03-27T17:51:26.553Z,1.65
2023-03-27T17:53:53.941Z,1.70
2023-03-27T17:56:21.447Z,1.90
2023-03-27T17:58:50.314Z,1.95
2023-03-27T18:01:20.312Z,1.73
2023-03-27T18:03:48.714Z,1.42
2023-03-27T18:06:17.710Z,1.60
2023-03-27T18:08:46.320Z,1.60
2023-03-27T18:11:15.824Z,2.05
2023-03-27T18:13:44.159Z,1.77
2023-03-27T18:16:12.110Z,1.52
2023-03-27T18:18:40.276Z,2.30
2023-03-27T18:21:07.985Z,1.60
2023-03-27T18:23:35.602Z,2.00
2023-03-27T18:26:06.974Z,2.05
2023-03-27T18:28:37.348Z,2.17
2023-03-27T18:31:08.364Z,1.92
2023-03-27T18:33:36.231Z,1.90
2023-03-27T18:36:04.556Z,2.30
2023-03-27T18:38:32.620Z,2.25
2023-03-27T18:41:00.226Z,2.00
2023-03-27T18:43:27.958Z,2.40
2023-03-27T18:45:59.479Z,1.90
2023-03-27T18:48:28.130Z,1.80
2023-03-27T18:51:04.101Z,1.48
2023-03-27T18:53:31.852Z,1.90
2023-03-27T18:55:59.658Z,1.83
2023-03-27T18:58:28.648Z,1.98
2023-03-27T19:00:57.286Z,2.00
2023-03-27T19:03:30.462Z,2.30
2023-03-27T19:06:01.727Z,1.92
2023-03-27T19:08:29.356Z,2.00
2023-03-27T19:10:57.642Z,2.20
2023-03-27T19:13:26.175Z,2.15
2023-03-27T19:15:53.546Z,2.40
2023-03-27T19:18:21.186Z,2.05
2023-03-27T19:20:48.606Z,2.00
2023-03-27T19:23:17.496Z,2.17
2023-03-27T19:25:51.564Z,2.22
2023-03-27T19:28:19.311Z,2.17
2023-03-27T19:30:46.821Z,2.30
2023-03-27T19:33:14.457Z,2.08
2023-03-27T19:35:41.828Z,2.25
2023-03-27T19:38:09.252Z,2.00
2023-03-27T19:40:39.727Z,2.05
2023-03-27T19:43:13.783Z,2.53
2023-03-27T19:45:41.149Z,2.78
2023-03-27T19:48:08.575Z,2.45
2023-03-27T19:50:36.038Z,2.38
2023-03-27T19:53:08.694Z,2.45
2023-03-27T19:55:37.092Z,2.20
2023-03-27T19:58:04.447Z,2.30
2023-03-27T20:00:32.259Z,2.25
2023-03-27T20:02:59.878Z,2.50
2023-03-27T20:05:27.674Z,2.58
2023-03-27T20:07:55.254Z,2.40
2023-03-27T20:10:23.237Z,2.35
2023-03-27T20:12:50.772Z,2.78
2023-03-27T20:15:18.168Z,2.92
2023-03-27T20:17:45.628Z,2.65
2023-03-27T20:20:13.078Z,2.50
2023-03-27T20:22:54.381Z,3.03
2023-03-27T20:25:24.268Z,2.67
2023-03-27T20:27:51.706Z,2.47
2023-03-27T20:30:19.166Z,2.40
2023-03-27T20:32:46.573Z,2.60
2023-03-27T20:35:23.506Z,2.67
2023-03-27T20:37:56.585Z,2.30
2023-03-27T20:40:25.821Z,2.40
2023-03-27T20:43:05.682Z,2.45
2023-03-27T20:45:33.184Z,2.30
2023-03-27T20:48:03.493Z,2.47
2023-03-27T20:50:31.619Z,2.25
2023-03-27T20:52:59.144Z,2.55
2023-03-27T20:58:00.197Z,2.70
2023-03-27T21:00:27.966Z,2.30
2023-03-27T21:02:55.464Z,2.30
2023-03-27T21:05:22.982Z,2.75
2023-03-27T21:07:51.843Z,2.20
2023-03-27T21:10:21.312Z,2.40
2023-03-27T21:12:51.162Z,2.70
2023-03-27T21:15:18.648Z,2.90
2023-03-27T21:17:46.218Z,2.78
2023-03-27T21:20:13.756Z,2.38
2023-03-27T21:22:41.316Z,2.33
2023-03-27T21:25:11.247Z,2.78
2023-03-27T21:27:39.069Z,2.63
2023-03-27T21:30:07.395Z,2.38
2023-03-27T21:32:34.784Z,2.53
2023-03-27T21:35:02.181Z,3.00
2023-03-27T21:37:29.509Z,3.17
2023-03-27T21:39:57.026Z,3.88
2023-03-27T21:42:24.754Z,3.58
2023-03-27T21:44:55.712Z,2.90
2023-03-27T21:47:31.709Z,3.00
2023-03-27T21:50:02.135Z,3.05
2023-03-27T21:52:41.626Z,3.20
2023-03-27T21:55:15.087Z,2.60
2023-03-27T21:57:42.802Z,3.17
2023-03-27T22:00:11.532Z,3.03
2023-03-27T22:02:38.867Z,2.80
2023-03-27T22:05:06.796Z,3.10
2023-03-27T22:07:34.303Z,3.40
2023-03-27T22:10:01.771Z,3.05
2023-03-27T22:12:34.711Z,3.25
2023-03-27T22:15:02.165Z,2.78
2023-03-27T22:17:29.931Z,3.03
2023-03-27T22:19:57.718Z,3.50
2023-03-27T22:22:25.561Z,3.38
2023-03-27T22:24:52.875Z,3.08
2023-03-27T22:27:20.599Z,2.58
2023-03-27T22:29:47.969Z,3.00
2023-03-27T22:32:15.380Z,2.75
2023-03-27T22:34:42.803Z,3.22
2023-03-27T22:37:10.333Z,3.03
2023-03-27T22:39:37.776Z,2.88
2023-03-27T22:42:05.442Z,2.80
2023-03-27T22:44:33.128Z,2.65
2023-03-27T22:47:01.149Z,2.67
2023-03-27T22:49:28.674Z,3.13
2023-03-27T22:51:56.180Z,3.13
2023-03-27T22:54:24.058Z,3.13
2023-03-27T22:56:51.492Z,2.53
2023-03-27T22:59:18.918Z,2.95
2023-03-27T23:01:46.407Z,3.08
2023-03-27T23:04:13.802Z,2.90
2023-03-27T23:06:41.224Z,2.85
2023-03-27T23:09:08.884Z,2.70
2023-03-27T23:11:36.753Z,2.90
2023-03-27T23:14:04.324Z,2.80
2023-03-27T23:16:31.804Z,2.70
2023-03-27T23:18:59.255Z,2.50
2023-03-27T23:21:26.594Z,2.83
2023-03-27T23:23:54.071Z,2.47
2023-03-27T23:26:21.645Z,2.22
2023-03-27T23:28:49.230Z,2.42
2023-03-27T23:31:20.214Z,2.97
2023-03-27T23:33:49.416Z,2.80
2023-03-27T23:36:19.867Z,2.50
2023-03-27T23:38:47.803Z,2.53
2023-03-27T23:41:16.055Z,2.40
2023-03-27T23:43:43.414Z,2.67
2023-03-27T23:46:11.279Z,2.97
2023-03-27T23:48:40.595Z,2.58
2023-03-27T23:51:08.970Z,3.00
2023-03-27T23:53:37.108Z,2.70
2023-03-27T23:56:04.923Z,2.55
2023-03-27T23:58:32.859Z,2.65
